createdAt,value
2019-05-10T00:00:15.879Z,99.90
2019-05-10T00:03:02.380Z,99.90
2019-05-10T00:05:49.705Z,99.90
2019-05-10T00:08:36.523Z,99.90
2019-05-10T00:11:08.130Z,99.90
2019-05-10T00:13:38.872Z,99.90
2019-05-10T00:16:07.535Z,99.90
2019-05-10T00:18:36.361Z,99.90
2019-05-10T00:21:05.036Z,99.90
2019-05-10T00:23:33.560Z,99.90
2019-05-10T00:26:02.185Z,99.90
2019-05-10T00:28:30.712Z,99.90
2019-05-10T00:30:59.640Z,99.90
2019-05-10T00:33:28.473Z,99.90
2019-05-10T00:35:57.027Z,99.90
2019-05-10T00:38:25.483Z,99.90
2019-05-10T00:40:54.039Z,99.90
2019-05-10T00:43:22.836Z,99.90
2019-05-10T00:45:51.290Z,99.90
2019-05-10T00:48:19.773Z,99.90
2019-05-10T00:50:48.299Z,99.90
2019-05-10T00:53:16.782Z,99.90
2019-05-10T00:55:45.623Z,99.90
2019-05-10T00:58:14.408Z,99.90
2019-05-10T01:00:42.873Z,99.90
2019-05-10T01:03:11.426Z,99.90
2019-05-10T01:05:39.879Z,99.90
2019-05-10T01:08:08.359Z,99.90
2019-05-10T01:10:36.816Z,99.90
2019-05-10T01:13:05.373Z,99.90
2019-05-10T01:15:33.895Z,99.90
2019-05-10T01:18:02.376Z,99.90
2019-05-10T01:20:30.919Z,99.90
2019-05-10T01:22:59.449Z,99.90
2019-05-10T01:25:35.420Z,99.90
2019-05-10T01:27:58.320Z,99.90
2019-05-10T01:30:27.228Z,99.90
2019-05-10T01:32:55.695Z,99.90
2019-05-10T01:35:24.243Z,99.90
2019-05-10T01:37:52.775Z,99.90
2019-05-10T01:40:21.343Z,99.90
2019-05-10T01:42:49.869Z,99.90
2019-05-10T01:45:18.588Z,99.90
2019-05-10T01:47:47.040Z,99.90
2019-05-10T01:50:15.744Z,99.90
2019-05-10T01:52:44.588Z,99.90
2019-05-10T01:55:13.384Z,99.90
2019-05-10T01:57:41.916Z,99.90
2019-05-10T02:00:11.211Z,99.90
2019-05-10T02:02:39.669Z,99.90
2019-05-10T02:05:09.533Z,99.90
2019-05-10T02:07:38.187Z,99.90
2019-05-10T02:10:07.196Z,99.90
2019-05-10T02:12:35.748Z,99.90
2019-05-10T02:15:07.292Z,99.90
2019-05-10T02:17:35.917Z,99.90
2019-05-10T02:20:06.256Z,99.90
2019-05-10T02:22:34.892Z,99.90
2019-05-10T02:25:04.060Z,99.90
2019-05-10T02:27:32.613Z,99.90
2019-05-10T02:30:01.177Z,99.90
2019-05-10T02:32:29.700Z,99.90
2019-05-10T02:34:59.321Z,99.90
2019-05-10T02:37:28.205Z,99.90
2019-05-10T02:39:56.758Z,99.90
2019-05-10T02:42:25.221Z,99.90
2019-05-10T02:44:53.769Z,99.90
2019-05-10T02:47:22.299Z,99.90
2019-05-10T02:49:50.848Z,99.90
2019-05-10T02:52:19.568Z,99.90
2019-05-10T02:54:48.363Z,99.90
2019-05-10T02:57:17.492Z,99.90
2019-05-10T02:59:48.683Z,99.90
2019-05-10T03:02:18.114Z,99.90
2019-05-10T03:04:47.212Z,99.90
2019-05-10T03:07:18.119Z,99.90
2019-05-10T03:09:49.139Z,99.90
2019-05-10T03:12:25.699Z,99.90
2019-05-10T03:14:56.958Z,99.90
2019-05-10T03:17:27.102Z,99.90
2019-05-10T03:19:56.074Z,99.90
2019-05-10T03:22:25.737Z,99.90
2019-05-10T03:24:54.651Z,99.90
2019-05-10T03:27:23.311Z,99.90
2019-05-10T03:29:52.440Z,99.90
2019-05-10T03:32:21.069Z,99.90
2019-05-10T03:34:49.754Z,99.90
2019-05-10T03:37:18.656Z,99.90
2019-05-10T03:39:47.290Z,99.90
2019-05-10T03:42:16.476Z,99.90
2019-05-10T03:44:45.297Z,99.90
2019-05-10T03:47:13.909Z,99.90
2019-05-10T03:49:42.529Z,99.90
2019-05-10T03:52:11.052Z,99.90
2019-05-10T03:54:39.604Z,99.90
2019-05-10T03:57:14.163Z,99.90
2019-05-10T03:59:38.269Z,99.90
2019-05-10T04:02:06.818Z,99.90
2019-05-10T04:04:35.876Z,99.90
2019-05-10T04:07:04.411Z,99.90
2019-05-10T04:09:33.251Z,99.90
2019-05-10T04:12:01.793Z,99.90
2019-05-10T04:14:30.336Z,99.90
2019-05-10T04:16:58.798Z,99.90
2019-05-10T04:19:27.350Z,99.90
2019-05-10T04:21:55.881Z,99.90
2019-05-10T04:24:24.965Z,99.90
2019-05-10T04:26:53.479Z,99.90
2019-05-10T04:29:21.960Z,99.90
2019-05-10T04:31:50.410Z,99.90
2019-05-10T04:34:18.959Z,99.90
2019-05-10T04:36:47.484Z,99.90
2019-05-10T04:39:15.960Z,99.90
2019-05-10T04:41:44.415Z,99.90
2019-05-10T04:44:13.041Z,99.90
2019-05-10T04:46:41.566Z,99.90
2019-05-10T04:49:10.183Z,99.90
2019-05-10T04:51:39.078Z,99.90
2019-05-10T04:54:07.628Z,99.90
2019-05-10T04:56:36.147Z,99.90
2019-05-10T04:59:04.767Z,99.90
2019-05-10T05:01:33.509Z,99.90
2019-05-10T05:04:02.400Z,99.90
2019-05-10T05:06:30.932Z,99.90
2019-05-10T05:08:59.484Z,99.90
2019-05-10T05:11:27.940Z,99.90
2019-05-10T05:13:56.419Z,99.90
2019-05-10T05:16:24.943Z,99.90
2019-05-10T05:18:53.700Z,99.90
2019-05-10T05:21:22.231Z,99.90
2019-05-10T05:23:51.068Z,99.90
2019-05-10T05:26:19.594Z,99.90
2019-05-10T05:28:48.440Z,99.90
2019-05-10T05:31:16.896Z,99.90
2019-05-10T05:33:45.473Z,99.90
2019-05-10T05:36:13.984Z,99.90
2019-05-10T05:38:47.285Z,99.90
2019-05-10T05:41:12.639Z,99.90
2019-05-10T05:43:46.315Z,99.90
2019-05-10T05:46:14.509Z,99.90
2019-05-10T05:48:42.131Z,99.90
2019-05-10T05:51:10.603Z,99.90
2019-05-10T05:53:42.503Z,99.90
2019-05-10T05:56:13.406Z,99.90
2019-05-10T05:58:44.788Z,99.90
2019-05-10T06:01:09.699Z,99.90
2019-05-10T06:03:38.183Z,99.90
2019-05-10T06:06:15.552Z,99.90
2019-05-10T06:08:36.948Z,99.90
2019-05-10T06:11:08.969Z,99.90
2019-05-10T06:13:35.960Z,99.90
2019-05-10T06:16:06.412Z,99.90
2019-05-10T06:18:34.843Z,99.90
2019-05-10T06:21:03.294Z,99.90
2019-05-10T06:23:35.011Z,99.90
2019-05-10T06:26:02.033Z,99.90
2019-05-10T06:28:56.836Z,99.90
2019-05-10T06:31:00.772Z,99.90
2019-05-10T06:33:29.596Z,99.90
2019-05-10T06:35:58.124Z,99.90
2019-05-10T06:38:26.647Z,99.90
2019-05-10T06:40:55.271Z,99.90
2019-05-10T06:43:23.791Z,99.90
2019-05-10T06:45:53.938Z,99.90
2019-05-10T06:48:27.482Z,99.90
2019-05-10T06:50:53.059Z,99.90
2019-05-10T06:53:23.436Z,99.90
2019-05-10T06:55:51.733Z,99.90
2019-05-10T06:58:20.254Z,99.90
2019-05-10T07:00:48.810Z,99.90
2019-05-10T07:03:17.343Z,99.90
2019-05-10T07:05:45.833Z,99.90
2019-05-10T07:08:20.165Z,99.90
2019-05-10T07:10:44.571Z,99.90
2019-05-10T07:13:13.188Z,99.90
2019-05-10T07:15:44.251Z,99.90
2019-05-10T07:18:16.686Z,99.90
2019-05-10T07:20:43.256Z,99.90
2019-05-10T07:23:12.785Z,99.90
2019-05-10T07:25:43.890Z,99.90
2019-05-10T07:28:15.682Z,99.90
2019-05-10T07:30:42.077Z,99.90
2019-05-10T07:33:10.735Z,99.90
2019-05-10T07:35:39.764Z,99.90
2019-05-10T07:38:08.446Z,99.90
2019-05-10T07:40:37.109Z,99.90
2019-05-10T07:43:05.808Z,99.90
2019-05-10T07:45:34.803Z,99.90
2019-05-10T07:48:08.413Z,99.90
2019-05-10T07:50:33.528Z,99.90
2019-05-10T07:53:02.003Z,99.90
2019-05-10T07:55:30.464Z,99.90
2019-05-10T07:58:04.619Z,99.90
2019-05-10T08:00:29.336Z,99.90
2019-05-10T08:03:11.862Z,99.90
2019-05-10T08:05:29.557Z,99.90
2019-05-10T08:08:00.842Z,99.90
2019-05-10T08:10:29.371Z,99.90
2019-05-10T08:12:59.489Z,99.90
2019-05-10T08:15:30.628Z,99.90
2019-05-10T08:17:58.821Z,99.90
2019-05-10T08:20:41.432Z,99.90
2019-05-10T08:22:57.696Z,99.90
2019-05-10T08:25:29.069Z,99.90
2019-05-10T08:27:56.457Z,99.90
2019-05-10T08:30:42.724Z,99.90
2019-05-10T08:33:09.961Z,99.90
2019-05-10T08:35:38.903Z,99.90
2019-05-10T08:38:08.708Z,99.90
2019-05-10T08:40:38.151Z,99.90
2019-05-10T08:43:09.727Z,99.90
2019-05-10T08:45:38.773Z,99.90
2019-05-10T08:48:07.450Z,99.90
2019-05-10T08:50:49.290Z,99.90
2019-05-10T08:53:10.925Z,99.90
2019-05-10T08:55:36.772Z,99.90
2019-05-10T08:58:05.324Z,99.90
2019-05-10T09:00:49.022Z,99.90
2019-05-10T09:03:09.256Z,99.90
2019-05-10T09:05:35.044Z,99.90
2019-05-10T09:08:05.756Z,99.90
2019-05-10T09:10:34.198Z,99.90
2019-05-10T09:13:03.474Z,99.90
2019-05-10T09:15:33.139Z,99.90
2019-05-10T09:18:04.454Z,99.90
2019-05-10T09:20:32.168Z,99.90
2019-05-10T09:23:02.400Z,99.90
2019-05-10T09:25:33.645Z,99.90
2019-05-10T09:28:10.615Z,99.90
2019-05-10T09:30:35.630Z,99.90
2019-05-10T09:33:08.735Z,99.90
2019-05-10T09:35:38.885Z,99.90
2019-05-10T09:38:05.155Z,99.90
2019-05-10T09:40:34.015Z,99.90
2019-05-10T09:43:07.437Z,99.90
2019-05-10T09:45:33.115Z,99.90
2019-05-10T09:48:02.567Z,99.90
2019-05-10T09:50:41.187Z,99.90
2019-05-10T09:53:01.615Z,99.90
2019-05-10T09:55:30.144Z,99.90
2019-05-10T09:57:58.714Z,99.90
2019-05-10T10:00:37.721Z,99.90
2019-05-10T10:03:08.206Z,99.90
2019-05-10T10:05:39.805Z,99.90
2019-05-10T10:08:09.156Z,99.90
2019-05-10T10:10:37.162Z,99.90
2019-05-10T10:13:11.752Z,99.50
2019-05-10T10:15:37.232Z,99.20
2019-05-10T10:18:06.403Z,97.70
2019-05-10T10:20:40.669Z,96.20
2019-05-10T10:23:07.263Z,97.10
2019-05-10T10:25:40.618Z,96.00
2019-05-10T10:28:08.243Z,96.60
2019-05-10T10:30:37.437Z,96.40
2019-05-10T10:33:11.318Z,96.60
2019-05-10T10:35:37.744Z,96.80
2019-05-10T10:38:08.093Z,97.40
2019-05-10T10:40:44.300Z,96.40
2019-05-10T10:43:07.723Z,97.30
2019-05-10T10:45:37.607Z,97.70
2019-05-10T10:48:10.720Z,97.30
2019-05-10T10:50:36.575Z,95.90
2019-05-10T10:53:07.798Z,96.80
2019-05-10T10:55:37.863Z,95.10
2019-05-10T10:58:07.413Z,95.20
2019-05-10T11:00:38.971Z,93.30
2019-05-10T11:03:07.154Z,94.00
2019-05-10T11:05:36.248Z,92.50
2019-05-10T11:08:04.840Z,89.00
2019-05-10T11:10:33.864Z,83.60
2019-05-10T11:13:10.202Z,83.10
2019-05-10T11:15:35.908Z,84.00
2019-05-10T11:18:03.032Z,84.80
2019-05-10T11:20:31.956Z,79.80
2019-05-10T11:23:00.620Z,74.90
2019-05-10T11:25:29.249Z,73.80
2019-05-10T11:27:59.282Z,72.20
2019-05-10T11:30:28.096Z,73.80
2019-05-10T11:32:56.720Z,70.40
2019-05-10T11:35:31.009Z,69.80
2019-05-10T11:37:55.447Z,67.20
2019-05-10T11:40:30.914Z,69.40
2019-05-10T11:42:54.419Z,66.20
2019-05-10T11:45:26.113Z,64.30
2019-05-10T11:47:58.754Z,60.20
2019-05-10T11:50:31.257Z,59.70
2019-05-10T11:52:54.522Z,56.50
2019-05-10T11:55:23.390Z,57.10
2019-05-10T11:58:01.840Z,55.30
2019-05-10T12:00:29.175Z,56.90
2019-05-10T12:07:54.727Z,51.70
2019-05-10T12:10:25.727Z,48.20
2019-05-10T12:15:25.837Z,44.70
2019-05-10T12:17:59.178Z,43.90
2019-05-10T12:20:39.516Z,44.30
2019-05-10T12:22:54.873Z,41.50
2019-05-10T12:25:42.711Z,39.70
2019-05-10T12:26:04.972Z,57.10
2019-05-10T12:26:05.330Z,46.70
2019-05-10T12:26:30.936Z,54.40
2019-05-10T12:27:53.976Z,38.50
2019-05-10T12:30:22.524Z,37.80
2019-05-10T12:32:56.170Z,37.80
2019-05-10T12:35:21.575Z,36.60
2019-05-10T12:37:54.105Z,36.30
2019-05-10T12:40:23.780Z,38.00
2019-05-10T12:42:51.079Z,39.80
2019-05-10T12:45:22.984Z,38.20
2019-05-10T12:47:51.720Z,36.20
2019-05-10T12:50:20.721Z,35.10
2019-05-10T12:53:01.946Z,35.80
2019-05-10T12:55:19.527Z,38.90
2019-05-10T12:57:47.988Z,42.50
2019-05-10T13:00:17.584Z,44.40
2019-05-10T13:02:51.479Z,45.30
2019-05-10T13:05:16.432Z,43.00
2019-05-10T13:07:44.949Z,41.60
2019-05-10T13:10:13.768Z,40.90
2019-05-10T13:12:46.857Z,42.10
2019-05-10T13:15:13.288Z,44.40
2019-05-10T13:17:43.868Z,46.60
2019-05-10T13:20:12.928Z,46.00
2019-05-10T13:22:41.486Z,47.50
2019-05-10T13:25:10.356Z,48.40
2019-05-10T13:27:39.048Z,48.90
2019-05-10T13:30:08.563Z,50.20
2019-05-10T13:32:37.115Z,51.10
2019-05-10T13:35:06.750Z,51.00
2019-05-10T13:37:35.352Z,51.80
2019-05-10T13:40:08.333Z,53.30
2019-05-10T13:42:43.323Z,54.30
2019-05-10T13:47:46.291Z,57.00
2019-05-10T13:50:14.920Z,57.90
2019-05-10T13:52:43.404Z,59.30
2019-05-10T13:55:12.007Z,60.10
2019-05-10T13:57:40.483Z,60.20
2019-05-10T14:00:10.848Z,61.30
2019-05-10T14:02:39.304Z,59.60
2019-05-10T14:05:11.716Z,61.10
2019-05-10T14:07:38.534Z,64.30
2019-05-10T14:10:07.411Z,67.30
2019-05-10T14:12:36.220Z,68.30
2019-05-10T14:15:12.977Z,69.90
2019-05-10T14:17:37.128Z,72.90
2019-05-10T14:20:19.680Z,75.50
2019-05-10T14:22:38.549Z,78.30
2019-05-10T14:25:08.564Z,81.90
2019-05-10T14:27:38.548Z,87.30
2019-05-10T14:30:13.758Z,90.70
2019-05-10T14:32:39.428Z,93.70
2019-05-10T14:35:08.629Z,97.10
2019-05-10T14:37:37.530Z,99.90
2019-05-10T14:40:07.492Z,99.90
2019-05-10T14:42:36.084Z,99.90
2019-05-10T14:45:05.989Z,99.90
2019-05-10T14:47:46.855Z,99.90
2019-05-10T14:50:06.387Z,99.90
2019-05-10T14:52:34.916Z,99.90
2019-05-10T14:55:04.890Z,99.90
2019-05-10T14:57:33.365Z,99.90
2019-05-10T15:00:02.819Z,99.90
2019-05-10T15:02:31.524Z,99.90
2019-05-10T15:05:01.369Z,99.90
2019-05-10T15:07:30.480Z,99.90
2019-05-10T15:10:00.279Z,99.90
2019-05-10T15:12:29.243Z,99.90
2019-05-10T15:14:57.704Z,99.90
2019-05-10T15:17:29.760Z,99.90
2019-05-10T15:19:59.634Z,99.70
2019-05-10T15:22:26.650Z,99.90
2019-05-10T15:24:55.180Z,99.90
2019-05-10T15:27:24.190Z,99.90
2019-05-10T15:29:52.690Z,99.90
2019-05-10T15:32:21.240Z,99.90
2019-05-10T15:35:05.607Z,99.90
2019-05-10T15:37:20.223Z,99.90
2019-05-10T15:39:49.011Z,99.90
2019-05-10T15:42:17.501Z,99.90
2019-05-10T15:44:46.027Z,99.90
2019-05-10T15:47:20.005Z,99.90
2019-05-10T15:49:44.755Z,99.90
2019-05-10T15:52:17.969Z,99.90
2019-05-10T15:54:45.030Z,99.90
2019-05-10T15:57:14.445Z,99.90
2019-05-10T15:59:43.801Z,99.90
2019-05-10T16:02:12.395Z,99.90
2019-05-10T16:04:41.205Z,99.90
2019-05-10T16:07:14.470Z,99.90
2019-05-10T16:09:40.078Z,99.90
2019-05-10T16:12:08.858Z,99.90
2019-05-10T16:14:39.264Z,99.90
2019-05-10T16:17:10.409Z,99.90
2019-05-10T16:19:38.099Z,99.90
2019-05-10T16:22:06.623Z,99.90
2019-05-10T16:24:35.184Z,99.90
2019-05-10T16:27:03.984Z,99.90
2019-05-10T16:29:37.530Z,99.90
2019-05-10T16:32:02.648Z,99.90
2019-05-10T16:34:32.248Z,99.90
2019-05-10T16:37:01.319Z,99.90
2019-05-10T16:39:30.181Z,99.90
2019-05-10T16:41:58.642Z,99.90
2019-05-10T16:44:27.207Z,99.90
2019-05-10T16:46:55.994Z,99.90
2019-05-10T16:49:24.542Z,99.90
2019-05-10T16:51:53.144Z,99.90
2019-05-10T16:54:25.405Z,99.90
2019-05-10T16:56:59.612Z,99.90
2019-05-10T16:59:24.382Z,99.90
2019-05-10T17:01:52.267Z,99.90
2019-05-10T17:04:20.821Z,99.90
2019-05-10T17:06:49.270Z,99.90
2019-05-10T17:09:19.478Z,99.90
2019-05-10T17:11:48.692Z,99.90
2019-05-10T17:14:17.990Z,99.90
2019-05-10T17:16:50.230Z,99.90
2019-05-10T17:19:16.931Z,99.90
2019-05-10T17:21:45.455Z,99.90
2019-05-10T17:24:18.664Z,99.90
2019-05-10T17:26:44.392Z,99.90
2019-05-10T17:29:14.740Z,99.90
2019-05-10T17:31:45.554Z,99.90
2019-05-10T17:34:21.932Z,99.90
2019-05-10T17:36:43.603Z,99.90
2019-05-10T17:39:12.074Z,99.90
2019-05-10T17:41:40.526Z,99.90
2019-05-10T17:44:09.055Z,99.90
2019-05-10T17:46:37.531Z,99.90
2019-05-10T17:49:06.059Z,99.90
2019-05-10T17:51:34.535Z,99.90
2019-05-10T17:54:03.780Z,99.90
2019-05-10T17:56:32.667Z,99.90
2019-05-10T17:59:05.983Z,99.90
2019-05-10T18:01:32.811Z,99.90
2019-05-10T18:04:01.343Z,99.90
2019-05-10T18:06:30.197Z,99.90
2019-05-10T18:08:58.683Z,99.90
2019-05-10T18:11:27.215Z,99.90
2019-05-10T18:13:55.691Z,99.90
2019-05-10T18:16:24.513Z,99.90
2019-05-10T18:18:53.069Z,99.90
2019-05-10T18:21:24.069Z,99.90
2019-05-10T18:23:52.758Z,99.90
2019-05-10T18:26:21.980Z,99.90
2019-05-10T18:28:50.808Z,99.90
2019-05-10T18:31:19.272Z,99.90
2019-05-10T18:33:54.143Z,99.90
2019-05-10T18:36:18.331Z,99.90
2019-05-10T18:38:46.815Z,99.90
2019-05-10T18:41:15.411Z,99.90
2019-05-10T18:43:43.888Z,99.90
2019-05-10T18:46:12.636Z,99.90
2019-05-10T18:48:41.123Z,99.90
2019-05-10T18:51:09.648Z,99.90
2019-05-10T18:53:38.131Z,99.90
2019-05-10T18:56:06.800Z,99.90
2019-05-10T18:58:35.283Z,99.90
2019-05-10T19:01:03.883Z,99.90
2019-05-10T19:03:33.782Z,99.90
2019-05-10T19:06:11.197Z,99.90
2019-05-10T19:08:32.777Z,99.90
2019-05-10T19:11:01.506Z,99.90
2019-05-10T19:13:34.115Z,99.90
2019-05-10T19:16:01.359Z,99.90
2019-05-10T19:18:29.922Z,99.90
2019-05-10T19:20:58.439Z,99.90
2019-05-10T19:23:26.916Z,99.90
2019-05-10T19:25:55.367Z,99.90
2019-05-10T19:28:26.712Z,99.90
2019-05-10T19:30:58.672Z,99.90
2019-05-10T19:33:29.616Z,99.90
2019-05-10T19:35:54.419Z,99.90
2019-05-10T19:38:22.898Z,99.90
2019-05-10T19:40:51.427Z,99.90
2019-05-10T19:43:21.552Z,99.90
2019-05-10T19:45:51.062Z,99.90
2019-05-10T19:48:20.647Z,99.90
2019-05-10T19:50:49.147Z,99.90
2019-05-10T19:53:17.632Z,99.90
2019-05-10T19:55:46.167Z,99.90
2019-05-10T19:58:14.645Z,99.90
2019-05-10T20:00:43.095Z,99.90
2019-05-10T20:03:11.571Z,99.90
2019-05-10T20:05:40.030Z,99.90
2019-05-10T20:08:08.580Z,99.90
2019-05-10T20:10:37.383Z,99.90
2019-05-10T20:13:05.932Z,99.90
2019-05-10T20:15:34.459Z,99.90
2019-05-10T20:18:03.050Z,99.90
2019-05-10T20:20:31.535Z,99.90
2019-05-10T20:23:00.029Z,99.90
2019-05-10T20:25:28.548Z,99.90
2019-05-10T20:27:57.099Z,99.90
2019-05-10T20:30:25.556Z,99.90
2019-05-10T20:32:54.103Z,99.90
2019-05-10T20:35:22.678Z,99.90
2019-05-10T20:38:01.471Z,99.90
2019-05-10T20:40:21.431Z,99.90
2019-05-10T20:42:49.927Z,99.90
2019-05-10T20:45:18.591Z,99.90
2019-05-10T20:47:47.582Z,99.90
2019-05-10T20:50:16.881Z,99.90
2019-05-10T20:52:45.872Z,99.90
2019-05-10T20:55:14.591Z,99.90
2019-05-10T20:57:43.171Z,99.90
2019-05-10T21:00:12.031Z,99.90
2019-05-10T21:02:40.584Z,99.90
2019-05-10T21:05:09.449Z,99.90
2019-05-10T21:07:37.936Z,99.90
2019-05-10T21:10:07.396Z,99.90
2019-05-10T21:12:36.279Z,99.90
2019-05-10T21:15:07.255Z,99.90
2019-05-10T21:17:35.824Z,99.90
2019-05-10T21:20:06.600Z,99.90
2019-05-10T21:22:35.151Z,99.90
2019-05-10T21:25:04.567Z,99.90
2019-05-10T21:27:33.052Z,99.90
2019-05-10T21:30:01.676Z,99.90
2019-05-10T21:32:30.155Z,99.90
2019-05-10T21:34:58.608Z,99.90
2019-05-10T21:37:27.071Z,99.90
2019-05-10T21:39:55.544Z,99.90
2019-05-10T21:42:24.308Z,99.90
2019-05-10T21:44:52.931Z,99.90
2019-05-10T21:47:21.385Z,99.90
2019-05-10T21:49:49.934Z,99.90
2019-05-10T21:52:18.387Z,99.90
2019-05-10T21:54:46.867Z,99.90
2019-05-10T21:57:15.812Z,99.90
2019-05-10T21:59:44.369Z,99.90
2019-05-10T22:02:12.969Z,99.90
2019-05-10T22:04:41.607Z,99.90
2019-05-10T22:07:10.199Z,99.90
2019-05-10T22:09:39.497Z,99.90
2019-05-10T22:12:08.540Z,99.90
2019-05-10T22:14:37.077Z,99.90
2019-05-10T22:17:05.939Z,99.90
2019-05-10T22:19:35.141Z,99.90
2019-05-10T22:22:04.129Z,99.90
2019-05-10T22:24:32.667Z,99.90
2019-05-10T22:27:01.311Z,99.90
2019-05-10T22:29:29.764Z,99.90
2019-05-10T22:31:58.249Z,99.90
2019-05-10T22:34:26.776Z,99.90
2019-05-10T22:36:55.337Z,99.90
2019-05-10T22:39:23.936Z,99.90
2019-05-10T22:41:53.081Z,99.90
2019-05-10T22:44:21.939Z,99.90
2019-05-10T22:46:50.481Z,99.90
2019-05-10T22:49:19.349Z,99.90
2019-05-10T22:51:47.915Z,99.90
2019-05-10T22:54:16.368Z,99.90
2019-05-10T22:56:44.924Z,99.90
2019-05-10T22:59:13.455Z,99.90
2019-05-10T23:01:42.007Z,99.90
2019-05-10T23:04:10.535Z,99.90
2019-05-10T23:06:39.340Z,99.90
2019-05-10T23:09:23.455Z,99.90
2019-05-10T23:11:39.261Z,99.90
2019-05-10T23:14:07.856Z,99.90
2019-05-10T23:16:36.335Z,99.90
2019-05-10T23:19:04.936Z,99.90
2019-05-10T23:21:33.479Z,99.90
2019-05-10T23:24:03.584Z,99.90
2019-05-10T23:26:32.135Z,99.90
2019-05-10T23:29:00.736Z,99.90
2019-05-10T23:31:29.292Z,99.90
2019-05-10T23:33:57.832Z,99.90
2019-05-10T23:36:26.443Z,99.90
2019-05-10T23:38:55.321Z,99.90
2019-05-10T23:41:23.876Z,99.90
2019-05-10T23:43:52.323Z,99.90
2019-05-10T23:46:20.808Z,99.90
2019-05-10T23:48:49.344Z,99.90
2019-05-10T23:51:17.896Z,99.90
2019-05-10T23:53:46.428Z,99.90
2019-05-10T23:56:14.908Z,99.90
2019-05-10T23:58:43.431Z,99.90
